sensor_id;sensor_type;location;lat;lon;timestamp;P1;durP1;ratioP1;P2;durP2;ratioP2
55312;SDS011;46892;45.668;11.756;2023-03-19T00:01:50;34.70;;;23.83;;
55312;SDS011;46892;45.668;11.756;2023-03-19T00:04:15;34.93;;;23.63;;
55312;SDS011;46892;45.668;11.756;2023-03-19T00:06:41;32.97;;;23.70;;
55312;SDS011;46892;45.668;11.756;2023-03-19T00:09:07;30.50;;;21.80;;
55312;SDS011;46892;45.668;11.756;2023-03-19T00:11:33;33.33;;;22.50;;
55312;SDS011;46892;45.668;11.756;2023-03-19T00:13:59;30.43;;;21.30;;
55312;SDS011;46892;45.668;11.756;2023-03-19T00:16:25;34.90;;;23.80;;
55312;SDS011;46892;45.668;11.756;2023-03-19T00:18:51;35.33;;;24.60;;
55312;SDS011;46892;45.668;11.756;2023-03-19T00:21:16;36.50;;;25.10;;
55312;SDS011;46892;45.668;11.756;2023-03-19T00:23:42;33.63;;;23.73;;
55312;SDS011;46892;45.668;11.756;2023-03-19T00:26:07;37.53;;;25.17;;
55312;SDS011;46892;45.668;11.756;2023-03-19T00:28:33;33.77;;;23.93;;
55312;SDS011;46892;45.668;11.756;2023-03-19T00:31:07;33.00;;;23.90;;
55312;SDS011;46892;45.668;11.756;2023-03-19T00:33:34;34.23;;;23.63;;
55312;SDS011;46892;45.668;11.756;2023-03-19T00:36:00;37.23;;;25.77;;
55312;SDS011;46892;45.668;11.756;2023-03-19T00:38:25;36.87;;;26.03;;
55312;SDS011;46892;45.668;11.756;2023-03-19T00:40:52;34.60;;;24.23;;
55312;SDS011;46892;45.668;11.756;2023-03-19T00:43:17;37.13;;;25.53;;
55312;SDS011;46892;45.668;11.756;2023-03-19T00:45:43;36.33;;;24.97;;
55312;SDS011;46892;45.668;11.756;2023-03-19T00:48:09;39.77;;;26.20;;
55312;SDS011;46892;45.668;11.756;2023-03-19T00:50:34;33.33;;;23.90;;
55312;SDS011;46892;45.668;11.756;2023-03-19T00:53:00;35.53;;;24.43;;
55312;SDS011;46892;45.668;11.756;2023-03-19T00:55:26;38.33;;;25.30;;
55312;SDS011;46892;45.668;11.756;2023-03-19T00:57:51;33.70;;;24.50;;
55312;SDS011;46892;45.668;11.756;2023-03-19T01:00:18;38.60;;;25.37;;
55312;SDS011;46892;45.668;11.756;2023-03-19T01:02:44;38.07;;;25.67;;
55312;SDS011;46892;45.668;11.756;2023-03-19T01:05:10;35.27;;;24.53;;
55312;SDS011;46892;45.668;11.756;2023-03-19T01:07:36;36.33;;;24.17;;
55312;SDS011;46892;45.668;11.756;2023-03-19T01:10:01;33.90;;;23.27;;
55312;SDS011;46892;45.668;11.756;2023-03-19T01:12:27;32.27;;;23.27;;
55312;SDS011;46892;45.668;11.756;2023-03-19T01:14:53;31.30;;;20.73;;
55312;SDS011;46892;45.668;11.756;2023-03-19T01:17:18;31.57;;;21.70;;
55312;SDS011;46892;45.668;11.756;2023-03-19T01:19:44;31.80;;;22.70;;
55312;SDS011;46892;45.668;11.756;2023-03-19T01:22:10;29.57;;;21.47;;
55312;SDS011;46892;45.668;11.756;2023-03-19T01:24:36;30.90;;;22.70;;
55312;SDS011;46892;45.668;11.756;2023-03-19T01:27:02;33.97;;;23.43;;
55312;SDS011;46892;45.668;11.756;2023-03-19T01:29:28;30.30;;;22.87;;
55312;SDS011;46892;45.668;11.756;2023-03-19T01:31:53;33.13;;;22.87;;
55312;SDS011;46892;45.668;11.756;2023-03-19T01:34:20;32.60;;;24.47;;
55312;SDS011;46892;45.668;11.756;2023-03-19T01:36:47;33.33;;;23.70;;
55312;SDS011;46892;45.668;11.756;2023-03-19T01:39:13;37.60;;;24.80;;
55312;SDS011;46892;45.668;11.756;2023-03-19T01:41:38;32.13;;;23.70;;
55312;SDS011;46892;45.668;11.756;2023-03-19T01:44:24;29.80;;;22.63;;
55312;SDS011;46892;45.668;11.756;2023-03-19T01:46:52;33.07;;;22.67;;
55312;SDS011;46892;45.668;11.756;2023-03-19T01:49:18;31.53;;;22.07;;
55312;SDS011;46892;45.668;11.756;2023-03-19T01:51:47;28.77;;;21.53;;
55312;SDS011;46892;45.668;11.756;2023-03-19T01:54:14;32.83;;;22.67;;
55312;SDS011;46892;45.668;11.756;2023-03-19T01:56:43;31.60;;;23.73;;
55312;SDS011;46892;45.668;11.756;2023-03-19T01:59:24;33.03;;;21.57;;
55312;SDS011;46892;45.668;11.756;2023-03-19T02:04:24;37.80;;;24.50;;
55312;SDS011;46892;45.668;11.756;2023-03-19T02:06:52;35.47;;;25.93;;
55312;SDS011;46892;45.668;11.756;2023-03-19T02:09:20;34.37;;;25.60;;
55312;SDS011;46892;45.668;11.756;2023-03-19T02:11:46;30.83;;;23.00;;
55312;SDS011;46892;45.668;11.756;2023-03-19T02:14:11;30.23;;;22.23;;
55312;SDS011;46892;45.668;11.756;2023-03-19T02:16:37;30.83;;;22.10;;
55312;SDS011;46892;45.668;11.756;2023-03-19T02:19:04;29.97;;;22.10;;
55312;SDS011;46892;45.668;11.756;2023-03-19T02:21:33;33.33;;;23.23;;
55312;SDS011;46892;45.668;11.756;2023-03-19T02:24:05;36.80;;;24.83;;
55312;SDS011;46892;45.668;11.756;2023-03-19T02:26:38;36.73;;;22.73;;
55312;SDS011;46892;45.668;11.756;2023-03-19T02:29:05;31.70;;;21.77;;
55312;SDS011;46892;45.668;11.756;2023-03-19T02:31:31;27.77;;;20.47;;
55312;SDS011;46892;45.668;11.756;2023-03-19T02:34:01;30.03;;;21.27;;
55312;SDS011;46892;45.668;11.756;2023-03-19T02:36:30;27.75;;;20.08;;
55312;SDS011;46892;45.668;11.756;2023-03-19T02:39:03;27.57;;;20.13;;
55312;SDS011;46892;45.668;11.756;2023-03-19T02:41:33;27.55;;;20.30;;
55312;SDS011;46892;45.668;11.756;2023-03-19T02:44:02;31.10;;;21.43;;
55312;SDS011;46892;45.668;11.756;2023-03-19T02:46:28;30.30;;;21.67;;
55312;SDS011;46892;45.668;11.756;2023-03-19T02:48:54;32.23;;;22.70;;
55312;SDS011;46892;45.668;11.756;2023-03-19T02:51:20;30.00;;;21.33;;
55312;SDS011;46892;45.668;11.756;2023-03-19T02:53:46;27.27;;;19.83;;
55312;SDS011;46892;45.668;11.756;2023-03-19T02:56:11;28.33;;;20.33;;
55312;SDS011;46892;45.668;11.756;2023-03-19T02:58:37;27.10;;;20.07;;
55312;SDS011;46892;45.668;11.756;2023-03-19T03:01:03;27.20;;;20.53;;
55312;SDS011;46892;45.668;11.756;2023-03-19T03:03:30;30.10;;;21.13;;
55312;SDS011;46892;45.668;11.756;2023-03-19T03:05:56;30.80;;;22.63;;
55312;SDS011;46892;45.668;11.756;2023-03-19T03:08:22;44.90;;;22.33;;
55312;SDS011;46892;45.668;11.756;2023-03-19T03:10:47;31.97;;;21.50;;
55312;SDS011;46892;45.668;11.756;2023-03-19T03:13:13;31.60;;;22.33;;
55312;SDS011;46892;45.668;11.756;2023-03-19T03:15:39;30.63;;;21.77;;
55312;SDS011;46892;45.668;11.756;2023-03-19T03:18:04;29.87;;;20.00;;
55312;SDS011;46892;45.668;11.756;2023-03-19T03:20:30;30.73;;;21.57;;
55312;SDS011;46892;45.668;11.756;2023-03-19T03:22:56;28.43;;;20.47;;
55312;SDS011;46892;45.668;11.756;2023-03-19T03:25:22;29.63;;;20.87;;
55312;SDS011;46892;45.668;11.756;2023-03-19T03:27:47;29.40;;;20.50;;
55312;SDS011;46892;45.668;11.756;2023-03-19T03:30:13;31.10;;;21.43;;
55312;SDS011;46892;45.668;11.756;2023-03-19T03:32:40;27.60;;;19.83;;
55312;SDS011;46892;45.668;11.756;2023-03-19T03:35:07;28.20;;;21.30;;
55312;SDS011;46892;45.668;11.756;2023-03-19T03:37:33;31.43;;;22.53;;
55312;SDS011;46892;45.668;11.756;2023-03-19T03:39:59;30.07;;;22.00;;
55312;SDS011;46892;45.668;11.756;2023-03-19T03:42:30;28.67;;;21.87;;
55312;SDS011;46892;45.668;11.756;2023-03-19T03:44:56;30.17;;;22.90;;
55312;SDS011;46892;45.668;11.756;2023-03-19T03:47:22;31.07;;;21.70;;
55312;SDS011;46892;45.668;11.756;2023-03-19T03:49:48;34.63;;;24.73;;
55312;SDS011;46892;45.668;11.756;2023-03-19T03:52:13;36.30;;;24.10;;
55312;SDS011;46892;45.668;11.756;2023-03-19T03:54:39;32.80;;;23.80;;
55312;SDS011;46892;45.668;11.756;2023-03-19T03:57:05;32.93;;;23.27;;
55312;SDS011;46892;45.668;11.756;2023-03-19T03:59:32;35.10;;;22.80;;
55312;SDS011;46892;45.668;11.756;2023-03-19T04:01:57;33.27;;;23.73;;
55312;SDS011;46892;45.668;11.756;2023-03-19T04:04:23;36.03;;;24.33;;
55312;SDS011;46892;45.668;11.756;2023-03-19T04:06:49;33.40;;;23.07;;
55312;SDS011;46892;45.668;11.756;2023-03-19T04:09:15;32.17;;;23.67;;
55312;SDS011;46892;45.668;11.756;2023-03-19T04:11:41;37.07;;;24.77;;
55312;SDS011;46892;45.668;11.756;2023-03-19T04:14:07;33.97;;;25.30;;
55312;SDS011;46892;45.668;11.756;2023-03-19T04:16:33;36.17;;;25.33;;
55312;SDS011;46892;45.668;11.756;2023-03-19T04:18:58;33.30;;;24.70;;
55312;SDS011;46892;45.668;11.756;2023-03-19T04:21:24;35.40;;;25.43;;
55312;SDS011;46892;45.668;11.756;2023-03-19T04:23:50;34.90;;;25.67;;
55312;SDS011;46892;45.668;11.756;2023-03-19T04:26:16;33.60;;;24.63;;
55312;SDS011;46892;45.668;11.756;2023-03-19T04:28:42;38.03;;;26.60;;
55312;SDS011;46892;45.668;11.756;2023-03-19T04:31:07;39.57;;;26.80;;
55312;SDS011;46892;45.668;11.756;2023-03-19T04:33:34;32.43;;;25.60;;
55312;SDS011;46892;45.668;11.756;2023-03-19T04:36:00;32.53;;;25.60;;
55312;SDS011;46892;45.668;11.756;2023-03-19T04:38:27;37.00;;;27.63;;
55312;SDS011;46892;45.668;11.756;2023-03-19T04:40:53;39.00;;;28.93;;
55312;SDS011;46892;45.668;11.756;2023-03-19T04:43:20;41.53;;;28.60;;
55312;SDS011;46892;45.668;11.756;2023-03-19T04:45:47;42.03;;;28.97;;
55312;SDS011;46892;45.668;11.756;2023-03-19T04:48:14;37.57;;;27.50;;
55312;SDS011;46892;45.668;11.756;2023-03-19T04:50:42;37.23;;;27.70;;
55312;SDS011;46892;45.668;11.756;2023-03-19T04:53:09;37.90;;;27.07;;
55312;SDS011;46892;45.668;11.756;2023-03-19T04:55:36;36.20;;;26.93;;
55312;SDS011;46892;45.668;11.756;2023-03-19T04:58:02;37.10;;;25.40;;
55312;SDS011;46892;45.668;11.756;2023-03-19T05:00:28;33.20;;;24.70;;
55312;SDS011;46892;45.668;11.756;2023-03-19T05:02:55;34.67;;;24.10;;
55312;SDS011;46892;45.668;11.756;2023-03-19T05:05:20;29.50;;;22.80;;
55312;SDS011;46892;45.668;11.756;2023-03-19T05:07:46;31.20;;;23.30;;
55312;SDS011;46892;45.668;11.756;2023-03-19T05:10:12;32.23;;;23.57;;
55312;SDS011;46892;45.668;11.756;2023-03-19T05:12:37;28.47;;;22.70;;
55312;SDS011;46892;45.668;11.756;2023-03-19T05:15:03;29.10;;;21.80;;
55312;SDS011;46892;45.668;11.756;2023-03-19T05:17:29;32.97;;;23.03;;
55312;SDS011;46892;45.668;11.756;2023-03-19T05:19:56;28.47;;;21.03;;
55312;SDS011;46892;45.668;11.756;2023-03-19T05:22:22;27.67;;;21.17;;
55312;SDS011;46892;45.668;11.756;2023-03-19T05:24:48;29.47;;;21.53;;
55312;SDS011;46892;45.668;11.756;2023-03-19T05:27:14;27.57;;;20.60;;
55312;SDS011;46892;45.668;11.756;2023-03-19T05:29:40;26.70;;;19.90;;
55312;SDS011;46892;45.668;11.756;2023-03-19T05:32:06;27.17;;;20.53;;
55312;SDS011;46892;45.668;11.756;2023-03-19T05:34:32;30.23;;;21.43;;
55312;SDS011;46892;45.668;11.756;2023-03-19T05:36:58;30.97;;;20.93;;
55312;SDS011;46892;45.668;11.756;2023-03-19T05:39:24;27.87;;;21.03;;
55312;SDS011;46892;45.668;11.756;2023-03-19T05:41:49;28.20;;;21.37;;
55312;SDS011;46892;45.668;11.756;2023-03-19T05:44:15;30.07;;;21.93;;
55312;SDS011;46892;45.668;11.756;2023-03-19T05:46:41;29.77;;;21.37;;
55312;SDS011;46892;45.668;11.756;2023-03-19T05:49:07;28.43;;;21.13;;
55312;SDS011;46892;45.668;11.756;2023-03-19T05:51:33;27.67;;;20.90;;
55312;SDS011;46892;45.668;11.756;2023-03-19T05:54:00;28.97;;;22.10;;
55312;SDS011;46892;45.668;11.756;2023-03-19T05:56:25;29.00;;;20.90;;
55312;SDS011;46892;45.668;11.756;2023-03-19T05:58:51;26.67;;;20.63;;
55312;SDS011;46892;45.668;11.756;2023-03-19T06:01:17;30.17;;;22.33;;
55312;SDS011;46892;45.668;11.756;2023-03-19T06:03:43;24.80;;;20.80;;
55312;SDS011;46892;45.668;11.756;2023-03-19T06:06:09;26.77;;;20.97;;
55312;SDS011;46892;45.668;11.756;2023-03-19T06:08:35;28.50;;;21.83;;
55312;SDS011;46892;45.668;11.756;2023-03-19T06:11:00;27.43;;;21.20;;
55312;SDS011;46892;45.668;11.756;2023-03-19T06:13:26;26.80;;;20.27;;
55312;SDS011;46892;45.668;11.756;2023-03-19T06:15:51;26.63;;;20.90;;
55312;SDS011;46892;45.668;11.756;2023-03-19T06:18:17;27.73;;;21.10;;
55312;SDS011;46892;45.668;11.756;2023-03-19T06:20:43;28.43;;;21.60;;
55312;SDS011;46892;45.668;11.756;2023-03-19T06:23:10;26.43;;;20.43;;
55312;SDS011;46892;45.668;11.756;2023-03-19T06:25:36;25.90;;;19.83;;
55312;SDS011;46892;45.668;11.756;2023-03-19T06:28:02;28.20;;;22.87;;
55312;SDS011;46892;45.668;11.756;2023-03-19T06:30:28;28.60;;;21.57;;
55312;SDS011;46892;45.668;11.756;2023-03-19T06:32:54;30.27;;;21.93;;
55312;SDS011;46892;45.668;11.756;2023-03-19T06:35:20;30.07;;;22.10;;
55312;SDS011;46892;45.668;11.756;2023-03-19T06:37:46;27.77;;;20.57;;
55312;SDS011;46892;45.668;11.756;2023-03-19T06:40:13;25.63;;;19.40;;
55312;SDS011;46892;45.668;11.756;2023-03-19T06:42:39;27.00;;;21.10;;
55312;SDS011;46892;45.668;11.756;2023-03-19T06:45:04;27.00;;;20.97;;
55312;SDS011;46892;45.668;11.756;2023-03-19T06:47:31;26.13;;;21.43;;
55312;SDS011;46892;45.668;11.756;2023-03-19T06:49:57;26.43;;;21.13;;
55312;SDS011;46892;45.668;11.756;2023-03-19T06:52:23;26.50;;;20.27;;
55312;SDS011;46892;45.668;11.756;2023-03-19T06:54:49;24.10;;;19.50;;
55312;SDS011;46892;45.668;11.756;2023-03-19T06:57:15;24.73;;;19.60;;
55312;SDS011;46892;45.668;11.756;2023-03-19T06:59:40;24.90;;;19.70;;
55312;SDS011;46892;45.668;11.756;2023-03-19T07:02:08;24.10;;;19.63;;
55312;SDS011;46892;45.668;11.756;2023-03-19T07:04:35;29.47;;;21.00;;
55312;SDS011;46892;45.668;11.756;2023-03-19T07:07:01;27.40;;;19.27;;
55312;SDS011;46892;45.668;11.756;2023-03-19T07:09:29;24.10;;;18.30;;
55312;SDS011;46892;45.668;11.756;2023-03-19T07:11:55;27.10;;;20.27;;
55312;SDS011;46892;45.668;11.756;2023-03-19T07:14:20;25.40;;;19.17;;
55312;SDS011;46892;45.668;11.756;2023-03-19T07:16:46;25.03;;;18.63;;
55312;SDS011;46892;45.668;11.756;2023-03-19T07:19:11;25.47;;;19.53;;
55312;SDS011;46892;45.668;11.756;2023-03-19T07:21:37;28.60;;;17.93;;
55312;SDS011;46892;45.668;11.756;2023-03-19T07:24:03;25.33;;;19.37;;
55312;SDS011;46892;45.668;11.756;2023-03-19T07:26:29;25.97;;;18.73;;
55312;SDS011;46892;45.668;11.756;2023-03-19T07:28:55;24.07;;;18.47;;
55312;SDS011;46892;45.668;11.756;2023-03-19T07:31:21;24.97;;;18.73;;
55312;SDS011;46892;45.668;11.756;2023-03-19T07:33:46;23.17;;;18.73;;
55312;SDS011;46892;45.668;11.756;2023-03-19T07:36:12;26.03;;;19.33;;
55312;SDS011;46892;45.668;11.756;2023-03-19T07:38:38;29.40;;;19.30;;
55312;SDS011;46892;45.668;11.756;2023-03-19T07:41:03;27.50;;;20.80;;
55312;SDS011;46892;45.668;11.756;2023-03-19T07:43:29;25.57;;;18.77;;
55312;SDS011;46892;45.668;11.756;2023-03-19T07:45:55;28.47;;;19.63;;
55312;SDS011;46892;45.668;11.756;2023-03-19T07:48:22;24.40;;;17.87;;
55312;SDS011;46892;45.668;11.756;2023-03-19T07:50:49;26.23;;;19.13;;
55312;SDS011;46892;45.668;11.756;2023-03-19T07:53:15;27.50;;;18.63;;
55312;SDS011;46892;45.668;11.756;2023-03-19T07:55:41;24.33;;;18.13;;
55312;SDS011;46892;45.668;11.756;2023-03-19T07:58:07;27.57;;;19.43;;
55312;SDS011;46892;45.668;11.756;2023-03-19T08:00:32;26.27;;;19.30;;
55312;SDS011;46892;45.668;11.756;2023-03-19T08:02:58;25.80;;;18.93;;
55312;SDS011;46892;45.668;11.756;2023-03-19T08:05:24;25.83;;;18.33;;
55312;SDS011;46892;45.668;11.756;2023-03-19T08:07:49;26.00;;;18.73;;
55312;SDS011;46892;45.668;11.756;2023-03-19T08:10:15;25.43;;;18.70;;
55312;SDS011;46892;45.668;11.756;2023-03-19T08:12:41;25.77;;;19.00;;
55312;SDS011;46892;45.668;11.756;2023-03-19T08:15:08;26.17;;;19.60;;
55312;SDS011;46892;45.668;11.756;2023-03-19T08:17:35;22.17;;;17.27;;
55312;SDS011;46892;45.668;11.756;2023-03-19T08:20:07;21.63;;;16.80;;
55312;SDS011;46892;45.668;11.756;2023-03-19T08:22:35;24.10;;;18.50;;
55312;SDS011;46892;45.668;11.756;2023-03-19T08:25:02;22.47;;;18.17;;
55312;SDS011;46892;45.668;11.756;2023-03-19T08:27:28;22.20;;;17.20;;
55312;SDS011;46892;45.668;11.756;2023-03-19T08:29:55;23.60;;;16.87;;
55312;SDS011;46892;45.668;11.756;2023-03-19T08:32:22;23.63;;;16.67;;
55312;SDS011;46892;45.668;11.756;2023-03-19T08:34:49;24.93;;;17.57;;
55312;SDS011;46892;45.668;11.756;2023-03-19T08:37:15;22.10;;;17.00;;
55312;SDS011;46892;45.668;11.756;2023-03-19T08:39:40;22.47;;;16.53;;
55312;SDS011;46892;45.668;11.756;2023-03-19T08:42:07;23.03;;;16.57;;
55312;SDS011;46892;45.668;11.756;2023-03-19T08:44:32;19.97;;;16.17;;
55312;SDS011;46892;45.668;11.756;2023-03-19T08:46:58;21.20;;;16.00;;
55312;SDS011;46892;45.668;11.756;2023-03-19T08:49:24;21.40;;;17.37;;
55312;SDS011;46892;45.668;11.756;2023-03-19T08:51:50;20.40;;;16.17;;
55312;SDS011;46892;45.668;11.756;2023-03-19T08:54:15;23.80;;;17.40;;
55312;SDS011;46892;45.668;11.756;2023-03-19T08:56:41;20.23;;;15.47;;
55312;SDS011;46892;45.668;11.756;2023-03-19T08:59:07;19.40;;;14.97;;
55312;SDS011;46892;45.668;11.756;2023-03-19T09:01:33;18.80;;;14.50;;
55312;SDS011;46892;45.668;11.756;2023-03-19T09:03:58;20.10;;;16.07;;
55312;SDS011;46892;45.668;11.756;2023-03-19T09:06:24;22.10;;;15.63;;
55312;SDS011;46892;45.668;11.756;2023-03-19T09:08:50;22.00;;;15.80;;
55312;SDS011;46892;45.668;11.756;2023-03-19T09:11:16;20.00;;;15.27;;
55312;SDS011;46892;45.668;11.756;2023-03-19T09:13:42;19.53;;;15.43;;
55312;SDS011;46892;45.668;11.756;2023-03-19T09:16:07;18.37;;;15.10;;
55312;SDS011;46892;45.668;11.756;2023-03-19T09:18:33;20.23;;;16.20;;
55312;SDS011;46892;45.668;11.756;2023-03-19T09:21:00;19.13;;;14.37;;
55312;SDS011;46892;45.668;11.756;2023-03-19T09:23:26;22.00;;;15.80;;
55312;SDS011;46892;45.668;11.756;2023-03-19T09:25:51;17.73;;;14.83;;
55312;SDS011;46892;45.668;11.756;2023-03-19T09:28:17;18.37;;;15.40;;
55312;SDS011;46892;45.668;11.756;2023-03-19T09:30:44;17.47;;;14.53;;
55312;SDS011;46892;45.668;11.756;2023-03-19T09:33:11;20.03;;;14.93;;
55312;SDS011;46892;45.668;11.756;2023-03-19T09:35:37;19.90;;;15.20;;
55312;SDS011;46892;45.668;11.756;2023-03-19T09:38:03;17.47;;;13.93;;
55312;SDS011;46892;45.668;11.756;2023-03-19T09:40:34;17.83;;;14.63;;
55312;SDS011;46892;45.668;11.756;2023-03-19T09:43:16;18.87;;;14.20;;
55312;SDS011;46892;45.668;11.756;2023-03-19T09:46:05;18.10;;;14.27;;
55312;SDS011;46892;45.668;11.756;2023-03-19T09:48:50;19.53;;;13.47;;
55312;SDS011;46892;45.668;11.756;2023-03-19T09:54:28;20.20;;;14.07;;
55312;SDS011;46892;45.668;11.756;2023-03-19T09:59:22;18.80;;;13.77;;
55312;SDS011;46892;45.668;11.756;2023-03-19T10:01:52;18.63;;;14.37;;
55312;SDS011;46892;45.668;11.756;2023-03-19T10:07:09;19.23;;;13.57;;
55312;SDS011;46892;45.668;11.756;2023-03-19T10:17:59;23.07;;;15.23;;
55312;SDS011;46892;45.668;11.756;2023-03-19T10:20:47;22.47;;;15.87;;
55312;SDS011;46892;45.668;11.756;2023-03-19T10:26:02;22.50;;;15.17;;
55312;SDS011;46892;45.668;11.756;2023-03-19T10:28:30;20.27;;;14.73;;
55312;SDS011;46892;45.668;11.756;2023-03-19T10:36:12;22.40;;;15.48;;
55312;SDS011;46892;45.668;11.756;2023-03-19T10:38:42;21.70;;;14.20;;
55312;SDS011;46892;45.668;11.756;2023-03-19T10:43:57;16.60;;;12.13;;
55312;SDS011;46892;45.668;11.756;2023-03-19T10:46:26;17.97;;;12.23;;
55312;SDS011;46892;45.668;11.756;2023-03-19T10:48:52;17.10;;;12.80;;
55312;SDS011;46892;45.668;11.756;2023-03-19T10:51:24;16.20;;;11.77;;
55312;SDS011;46892;45.668;11.756;2023-03-19T10:53:51;17.90;;;11.93;;
55312;SDS011;46892;45.668;11.756;2023-03-19T10:56:22;20.57;;;13.03;;
55312;SDS011;46892;45.668;11.756;2023-03-19T10:58:59;18.20;;;13.05;;
55312;SDS011;46892;45.668;11.756;2023-03-19T11:01:27;16.90;;;13.07;;
55312;SDS011;46892;45.668;11.756;2023-03-19T11:06:33;17.73;;;12.83;;
55312;SDS011;46892;45.668;11.756;2023-03-19T11:09:02;23.77;;;13.40;;
55312;SDS011;46892;45.668;11.756;2023-03-19T11:11:43;21.03;;;12.87;;
55312;SDS011;46892;45.668;11.756;2023-03-19T11:19:26;16.37;;;11.27;;
55312;SDS011;46892;45.668;11.756;2023-03-19T11:24:32;18.77;;;11.77;;
55312;SDS011;46892;45.668;11.756;2023-03-19T11:27:02;17.73;;;12.13;;
55312;SDS011;46892;45.668;11.756;2023-03-19T11:29:29;19.20;;;12.23;;
55312;SDS011;46892;45.668;11.756;2023-03-19T11:38:09;18.23;;;12.60;;
55312;SDS011;46892;45.668;11.756;2023-03-19T11:40:46;16.73;;;11.73;;
55312;SDS011;46892;45.668;11.756;2023-03-19T11:51:48;17.23;;;12.40;;
55312;SDS011;46892;45.668;11.756;2023-03-19T11:54:32;17.15;;;12.32;;
55312;SDS011;46892;45.668;11.756;2023-03-19T12:00:29;18.43;;;12.87;;
55312;SDS011;46892;45.668;11.756;2023-03-19T12:08:25;18.88;;;13.23;;
55312;SDS011;46892;45.668;11.756;2023-03-19T12:11:02;18.47;;;12.97;;
55312;SDS011;46892;45.668;11.756;2023-03-19T12:35:52;17.67;;;11.73;;
55312;SDS011;46892;45.668;11.756;2023-03-19T12:40:53;15.47;;;11.13;;
55312;SDS011;46892;45.668;11.756;2023-03-19T12:46:26;18.90;;;11.70;;
55312;SDS011;46892;45.668;11.756;2023-03-19T12:51:55;18.27;;;11.63;;
55312;SDS011;46892;45.668;11.756;2023-03-19T12:54:26;17.90;;;12.60;;
55312;SDS011;46892;45.668;11.756;2023-03-19T13:02:17;14.30;;;10.47;;
55312;SDS011;46892;45.668;11.756;2023-03-19T13:05:01;14.83;;;10.73;;
55312;SDS011;46892;45.668;11.756;2023-03-19T13:10:43;16.43;;;11.53;;
55312;SDS011;46892;45.668;11.756;2023-03-19T13:13:55;14.93;;;11.57;;
55312;SDS011;46892;45.668;11.756;2023-03-19T13:15:57;17.13;;;11.40;;
55312;SDS011;46892;45.668;11.756;2023-03-19T13:21:18;15.77;;;11.80;;
55312;SDS011;46892;45.668;11.756;2023-03-19T13:26:32;16.53;;;11.47;;
55312;SDS011;46892;45.668;11.756;2023-03-19T13:28:59;15.03;;;11.17;;
55312;SDS011;46892;45.668;11.756;2023-03-19T13:31:35;17.37;;;12.13;;
55312;SDS011;46892;45.668;11.756;2023-03-19T13:34:06;16.02;;;12.23;;
55312;SDS011;46892;45.668;11.756;2023-03-19T13:36:44;16.37;;;11.60;;
55312;SDS011;46892;45.668;11.756;2023-03-19T13:39:27;15.70;;;11.80;;
55312;SDS011;46892;45.668;11.756;2023-03-19T13:42:05;15.47;;;11.37;;
55312;SDS011;46892;45.668;11.756;2023-03-19T13:58:05;14.27;;;10.57;;
55312;SDS011;46892;45.668;11.756;2023-03-19T14:01:02;14.57;;;10.97;;
55312;SDS011;46892;45.668;11.756;2023-03-19T14:03:53;15.47;;;11.67;;
55312;SDS011;46892;45.668;11.756;2023-03-19T14:08:57;16.67;;;12.53;;
55312;SDS011;46892;45.668;11.756;2023-03-19T14:11:23;15.27;;;12.10;;
55312;SDS011;46892;45.668;11.756;2023-03-19T14:13:53;18.58;;;12.73;;
55312;SDS011;46892;45.668;11.756;2023-03-19T14:16:21;20.47;;;12.37;;
55312;SDS011;46892;45.668;11.756;2023-03-19T14:18:51;16.23;;;12.32;;
55312;SDS011;46892;45.668;11.756;2023-03-19T14:21:31;17.80;;;12.80;;
55312;SDS011;46892;45.668;11.756;2023-03-19T14:26:57;17.20;;;12.13;;
55312;SDS011;46892;45.668;11.756;2023-03-19T14:29:27;17.37;;;11.57;;
55312;SDS011;46892;45.668;11.756;2023-03-19T14:31:54;18.20;;;11.83;;
55312;SDS011;46892;45.668;11.756;2023-03-19T14:34:33;16.20;;;12.20;;
55312;SDS011;46892;45.668;11.756;2023-03-19T14:37:07;16.77;;;12.67;;
55312;SDS011;46892;45.668;11.756;2023-03-19T14:39:57;16.53;;;12.30;;
55312;SDS011;46892;45.668;11.756;2023-03-19T14:53:40;15.73;;;12.00;;
55312;SDS011;46892;45.668;11.756;2023-03-19T14:56:18;17.33;;;13.17;;
55312;SDS011;46892;45.668;11.756;2023-03-19T14:58:48;17.17;;;12.60;;
55312;SDS011;46892;45.668;11.756;2023-03-19T15:01:15;16.53;;;12.40;;
55312;SDS011;46892;45.668;11.756;2023-03-19T15:03:42;17.10;;;13.37;;
55312;SDS011;46892;45.668;11.756;2023-03-19T15:06:09;15.13;;;12.10;;
55312;SDS011;46892;45.668;11.756;2023-03-19T15:08:38;16.67;;;12.00;;
55312;SDS011;46892;45.668;11.756;2023-03-19T15:19:14;18.07;;;13.83;;
55312;SDS011;46892;45.668;11.756;2023-03-19T15:21:43;16.70;;;12.97;;
55312;SDS011;46892;45.668;11.756;2023-03-19T15:24:14;18.00;;;13.68;;
55312;SDS011;46892;45.668;11.756;2023-03-19T15:26:41;16.00;;;12.67;;
55312;SDS011;46892;45.668;11.756;2023-03-19T15:29:07;16.73;;;12.60;;
55312;SDS011;46892;45.668;11.756;2023-03-19T15:31:48;18.60;;;13.27;;
55312;SDS011;46892;45.668;11.756;2023-03-19T15:34:22;18.35;;;14.48;;
55312;SDS011;46892;45.668;11.756;2023-03-19T15:36:54;19.10;;;14.57;;
55312;SDS011;46892;45.668;11.756;2023-03-19T15:39:23;17.00;;;13.60;;
55312;SDS011;46892;45.668;11.756;2023-03-19T15:41:53;18.17;;;14.40;;
55312;SDS011;46892;45.668;11.756;2023-03-19T15:44:24;19.97;;;13.93;;
55312;SDS011;46892;45.668;11.756;2023-03-19T15:46:57;19.50;;;14.57;;
55312;SDS011;46892;45.668;11.756;2023-03-19T15:49:27;19.73;;;14.60;;
55312;SDS011;46892;45.668;11.756;2023-03-19T15:52:00;19.07;;;13.90;;
55312;SDS011;46892;45.668;11.756;2023-03-19T15:54:29;16.85;;;13.57;;
55312;SDS011;46892;45.668;11.756;2023-03-19T15:56:57;18.53;;;14.13;;
55312;SDS011;46892;45.668;11.756;2023-03-19T15:59:23;19.73;;;14.10;;
55312;SDS011;46892;45.668;11.756;2023-03-19T16:01:55;18.80;;;15.10;;
55312;SDS011;46892;45.668;11.756;2023-03-19T16:06:59;18.83;;;15.30;;
55312;SDS011;46892;45.668;11.756;2023-03-19T16:12:00;18.33;;;13.77;;
55312;SDS011;46892;45.668;11.756;2023-03-19T16:14:30;20.80;;;15.40;;
55312;SDS011;46892;45.668;11.756;2023-03-19T16:17:15;15.87;;;13.23;;
55312;SDS011;46892;45.668;11.756;2023-03-19T16:19:52;19.20;;;14.97;;
55312;SDS011;46892;45.668;11.756;2023-03-19T16:22:21;17.50;;;13.27;;
55312;SDS011;46892;45.668;11.756;2023-03-19T16:24:49;18.20;;;14.73;;
55312;SDS011;46892;45.668;11.756;2023-03-19T16:27:17;16.63;;;13.73;;
55312;SDS011;46892;45.668;11.756;2023-03-19T16:29:55;18.73;;;14.90;;
55312;SDS011;46892;45.668;11.756;2023-03-19T16:32:26;19.50;;;14.60;;
55312;SDS011;46892;45.668;11.756;2023-03-19T16:34:54;20.80;;;15.13;;
55312;SDS011;46892;45.668;11.756;2023-03-19T16:37:31;17.80;;;14.23;;
55312;SDS011;46892;45.668;11.756;2023-03-19T16:40:00;18.97;;;14.83;;
55312;SDS011;46892;45.668;11.756;2023-03-19T16:44:56;19.97;;;14.03;;
55312;SDS011;46892;45.668;11.756;2023-03-19T16:47:26;20.05;;;15.70;;
55312;SDS011;46892;45.668;11.756;2023-03-19T16:49:52;18.20;;;14.73;;